Wake, Virginia
Current Conditions -  °F | °C
As of 3:35 PM on Monday 26 Jan 2015 (Local Time) from KW75 Reporting Station
Overcast Overcast  
Wind Chill: 33°   Ceiling: 1000
Heat Index: 40°   Visibility: 7mi
Dew Point: 37°   Wind: 12mph
Humidity: 88%   Direction: 350°N
Pressure: 29.6"   Gusts: NA
Location:  37.57°N, 76.43°W
Report Text: KW75 262035Z AUTO 35010KT 7SM OVC010 05/03 A2960 RMK AO1 T00460027
Loading
Personal Weather Stations






























Interactive Weather Map New forecast layout! Learn more

10-Day Weather Forecast

Advertisements
Track Severe Weather on mobile